createdAt,value
2023-07-03T00:00:20.223Z,99.90
2023-07-03T00:02:52.704Z,99.90
2023-07-03T00:05:21.818Z,99.90
2023-07-03T00:07:49.065Z,99.90
2023-07-03T00:10:17.731Z,99.90
2023-07-03T00:12:45.779Z,99.90
2023-07-03T00:15:13.611Z,99.90
2023-07-03T00:17:45.715Z,99.90
2023-07-03T00:20:15.620Z,99.90
2023-07-03T00:22:47.914Z,99.90
2023-07-03T00:25:16.321Z,99.90
2023-07-03T00:27:43.546Z,99.90
2023-07-03T00:30:11.833Z,99.90
2023-07-03T00:32:39.007Z,99.90
2023-07-03T00:35:07.943Z,99.90
2023-07-03T00:37:35.827Z,99.90
2023-07-03T00:40:04.508Z,99.90
2023-07-03T00:42:31.991Z,99.90
2023-07-03T00:44:59.144Z,99.90
2023-07-03T00:47:28.788Z,99.90
2023-07-03T00:49:55.989Z,99.90
2023-07-03T00:52:23.495Z,99.90
2023-07-03T00:54:51.116Z,99.90
2023-07-03T00:57:18.658Z,99.90
2023-07-03T00:59:46.263Z,99.90
2023-07-03T01:02:35.553Z,99.90
2023-07-03T01:05:12.299Z,99.90
2023-07-03T01:07:40.672Z,99.90
2023-07-03T01:10:16.858Z,99.90
2023-07-03T01:12:48.717Z,99.90
2023-07-03T01:15:24.645Z,99.90
2023-07-03T01:17:54.959Z,99.90
2023-07-03T01:20:25.643Z,99.90
2023-07-03T01:23:17.127Z,99.90
2023-07-03T01:25:47.661Z,99.90
2023-07-03T01:28:19.530Z,99.90
2023-07-03T01:30:51.658Z,99.90
2023-07-03T01:33:26.539Z,99.90
2023-07-03T01:35:55.424Z,99.90
2023-07-03T01:38:24.637Z,99.90
2023-07-03T01:40:54.780Z,99.90
2023-07-03T01:43:23.214Z,99.90
2023-07-03T01:45:50.503Z,99.90
2023-07-03T01:48:18.946Z,99.90
2023-07-03T01:50:48.937Z,99.90
2023-07-03T01:53:22.846Z,99.90
2023-07-03T01:56:24.631Z,99.90
2023-07-03T01:58:59.993Z,99.90
2023-07-03T02:01:52.136Z,99.90
2023-07-03T02:04:36.789Z,99.90
2023-07-03T02:07:06.612Z,99.90
2023-07-03T02:09:33.959Z,99.90
2023-07-03T02:12:01.237Z,99.90
2023-07-03T02:14:28.328Z,99.90
2023-07-03T02:16:55.599Z,99.90
2023-07-03T02:19:30.037Z,99.90
2023-07-03T02:21:58.032Z,99.90
2023-07-03T02:24:25.674Z,99.90
2023-07-03T02:26:54.586Z,99.90
2023-07-03T02:29:21.992Z,99.90
2023-07-03T02:31:49.139Z,99.90
2023-07-03T02:34:16.648Z,99.90
2023-07-03T02:36:47.366Z,99.90
2023-07-03T02:39:14.493Z,99.90
2023-07-03T02:41:41.755Z,99.90
2023-07-03T02:44:08.986Z,99.90
2023-07-03T02:46:36.214Z,99.90
2023-07-03T02:49:04.791Z,99.90
2023-07-03T02:51:31.965Z,99.90
2023-07-03T02:53:59.197Z,99.90
2023-07-03T02:56:26.512Z,99.90
2023-07-03T02:58:53.603Z,99.90
2023-07-03T03:01:20.997Z,99.90
2023-07-03T03:03:48.618Z,99.90
2023-07-03T03:06:15.765Z,99.90
2023-07-03T03:08:42.854Z,99.90
2023-07-03T03:11:11.502Z,99.90
2023-07-03T03:13:38.552Z,99.90
2023-07-03T03:16:06.463Z,99.90
2023-07-03T03:18:33.543Z,99.90
2023-07-03T03:21:03.375Z,99.90
2023-07-03T03:23:30.594Z,99.90
2023-07-03T03:25:57.890Z,99.90
2023-07-03T03:28:24.917Z,99.90
2023-07-03T03:30:51.990Z,99.90
2023-07-03T03:33:19.119Z,99.90
2023-07-03T03:35:48.469Z,99.90
2023-07-03T03:38:15.974Z,99.90
2023-07-03T03:40:54.651Z,99.90
2023-07-03T03:43:22.028Z,99.90
2023-07-03T03:46:03.691Z,99.90
2023-07-03T03:48:32.475Z,99.90
2023-07-03T03:51:01.641Z,99.90
2023-07-03T03:53:28.815Z,99.90
2023-07-03T03:55:55.940Z,99.90
2023-07-03T03:58:23.262Z,99.90
2023-07-03T04:00:53.524Z,99.90
2023-07-03T04:03:21.052Z,99.90
2023-07-03T04:05:49.531Z,99.90
2023-07-03T04:08:17.153Z,99.90
2023-07-03T04:10:44.686Z,99.90
2023-07-03T04:13:14.639Z,99.90
2023-07-03T04:15:54.595Z,99.90
2023-07-03T04:18:24.223Z,99.90
2023-07-03T04:20:51.999Z,99.90
2023-07-03T04:23:19.782Z,99.90
2023-07-03T04:25:48.423Z,99.90
2023-07-03T04:28:18.976Z,99.90
2023-07-03T04:30:47.531Z,99.90
2023-07-03T04:33:15.256Z,99.90
2023-07-03T04:35:43.040Z,99.90
2023-07-03T04:38:10.613Z,99.90
2023-07-03T04:40:38.446Z,99.90
2023-07-03T04:43:09.452Z,99.90
2023-07-03T04:46:27.024Z,99.90
2023-07-03T04:49:01.334Z,99.90
2023-07-03T04:51:31.965Z,99.90
2023-07-03T04:54:01.596Z,99.90
2023-07-03T04:56:30.543Z,99.90
2023-07-03T04:58:57.836Z,99.90
2023-07-03T05:01:25.654Z,99.90
2023-07-03T05:03:53.272Z,99.90
2023-07-03T05:06:20.531Z,99.90
2023-07-03T05:08:48.168Z,99.90
2023-07-03T05:11:15.459Z,99.90
2023-07-03T05:13:42.816Z,99.90
2023-07-03T05:16:10.104Z,99.90
2023-07-03T05:18:37.364Z,99.90
2023-07-03T05:21:07.481Z,99.90
2023-07-03T05:23:34.838Z,99.90
2023-07-03T05:26:01.991Z,99.20
2023-07-03T05:28:29.120Z,99.40
2023-07-03T05:31:00.411Z,97.50
2023-07-03T05:33:29.966Z,94.20
2023-07-03T05:36:04.245Z,94.50
2023-07-03T05:38:46.592Z,94.00
2023-07-03T05:41:16.696Z,91.60
2023-07-03T05:43:46.360Z,90.50
2023-07-03T05:46:13.503Z,89.00
2023-07-03T05:48:40.730Z,89.10
2023-07-03T05:51:07.992Z,87.70
2023-07-03T05:53:35.423Z,88.30
2023-07-03T05:56:03.790Z,79.40
2023-07-03T05:58:46.221Z,74.10
2023-07-03T06:01:13.938Z,72.90
2023-07-03T06:03:44.275Z,73.90
2023-07-03T06:06:14.260Z,73.70
2023-07-03T06:08:49.206Z,74.00
2023-07-03T06:11:16.833Z,71.00
2023-07-03T06:13:50.372Z,68.60
2023-07-03T06:16:20.508Z,69.10
2023-07-03T06:18:47.785Z,64.10
2023-07-03T06:21:15.239Z,64.50
2023-07-03T06:23:42.540Z,63.60
2023-07-03T06:26:10.145Z,60.90
2023-07-03T06:28:37.515Z,60.90
2023-07-03T06:31:04.874Z,58.60
2023-07-03T06:33:35.515Z,58.30
2023-07-03T06:36:02.835Z,57.90
2023-07-03T06:38:30.060Z,55.50
2023-07-03T06:41:01.080Z,53.00
2023-07-03T06:43:28.425Z,54.00
2023-07-03T06:45:58.356Z,54.20
2023-07-03T06:48:26.067Z,54.70
2023-07-03T06:51:09.180Z,53.20
2023-07-03T06:53:44.579Z,52.50
2023-07-03T06:56:21.811Z,50.90
2023-07-03T06:58:52.576Z,51.00
2023-07-03T07:01:24.119Z,51.00
2023-07-03T07:03:51.968Z,51.30
2023-07-03T07:06:26.660Z,48.60
2023-07-03T07:08:54.879Z,48.90
2023-07-03T07:11:26.108Z,47.70
2023-07-03T07:13:58.813Z,47.90
2023-07-03T07:16:32.473Z,47.80
2023-07-03T07:19:02.613Z,47.80
2023-07-03T07:21:36.775Z,47.30
2023-07-03T07:24:21.759Z,46.30
2023-07-03T07:26:51.610Z,46.80
2023-07-03T07:29:19.076Z,45.60
2023-07-03T07:31:46.715Z,46.40
2023-07-03T07:34:14.121Z,46.90
2023-07-03T07:36:42.044Z,47.10
2023-07-03T07:39:14.699Z,46.00
2023-07-03T07:41:41.936Z,45.60
2023-07-03T07:44:09.319Z,44.50
2023-07-03T07:46:37.782Z,45.10
2023-07-03T07:49:05.785Z,45.90
2023-07-03T07:51:33.626Z,45.60
2023-07-03T07:54:01.168Z,46.00
2023-07-03T07:56:29.846Z,45.40
2023-07-03T07:58:59.000Z,46.00
2023-07-03T08:01:26.447Z,47.00
2023-07-03T08:03:53.775Z,43.10
2023-07-03T08:06:20.926Z,42.70
2023-07-03T08:08:48.180Z,42.60
2023-07-03T08:11:15.491Z,41.90
2023-07-03T08:13:43.502Z,42.70
2023-07-03T08:16:12.656Z,42.50
2023-07-03T08:18:39.834Z,41.10
2023-07-03T08:21:07.206Z,41.50
2023-07-03T08:23:34.440Z,41.20
2023-07-03T08:26:02.390Z,41.40
2023-07-03T08:28:31.008Z,38.30
2023-07-03T08:31:02.133Z,38.10
2023-07-03T08:33:29.502Z,38.70
2023-07-03T08:38:26.703Z,37.70
2023-07-03T08:41:02.513Z,37.80
2023-07-03T08:43:40.210Z,37.70
2023-07-03T08:46:18.070Z,38.50
2023-07-03T08:48:48.576Z,37.20
2023-07-03T08:51:20.670Z,37.20
2023-07-03T08:53:57.809Z,37.90
2023-07-03T08:56:32.067Z,38.40
2023-07-03T08:58:59.700Z,38.20
2023-07-03T09:01:46.920Z,39.20
2023-07-03T09:05:04.728Z,40.10
2023-07-03T09:07:53.524Z,37.60
2023-07-03T09:10:30.737Z,35.90
2023-07-03T09:13:13.377Z,37.30
2023-07-03T09:15:56.511Z,39.00
2023-07-03T09:18:30.298Z,39.40
2023-07-03T09:21:01.126Z,39.50
2023-07-03T09:23:54.382Z,37.40
2023-07-03T09:26:58.499Z,35.90
2023-07-03T09:29:28.515Z,37.90
2023-07-03T09:31:56.579Z,36.70
2023-07-03T09:34:23.928Z,35.80
2023-07-03T09:37:00.489Z,36.30
2023-07-03T09:39:28.422Z,36.80
2023-07-03T09:42:07.910Z,37.40
2023-07-03T09:44:43.255Z,36.10
2023-07-03T09:47:30.607Z,37.40
2023-07-03T09:50:07.609Z,35.60
2023-07-03T09:52:43.777Z,35.70
2023-07-03T09:55:18.012Z,36.70
2023-07-03T09:57:46.435Z,35.00
2023-07-03T10:00:22.619Z,34.40
2023-07-03T11:44:42.673Z,40.50
2023-07-03T11:47:30.177Z,40.80
2023-07-03T11:50:05.721Z,41.70
2023-07-03T11:52:48.655Z,40.70
2023-07-03T11:55:22.325Z,41.50
2023-07-03T11:58:09.596Z,41.30
2023-07-03T12:00:45.563Z,40.30
2023-07-03T12:03:53.984Z,40.60
2023-07-03T12:06:40.156Z,41.60
2023-07-03T12:09:22.070Z,43.10
2023-07-03T12:12:25.722Z,43.90
2023-07-03T12:14:58.871Z,44.20
2023-07-03T12:17:35.487Z,45.00
2023-07-03T12:20:14.794Z,43.30
2023-07-03T12:22:47.982Z,42.60
2023-07-03T12:25:30.270Z,41.60
2023-07-03T12:28:15.969Z,42.60
2023-07-03T12:30:44.433Z,43.60
2023-07-03T12:33:20.679Z,43.70
2023-07-03T12:35:51.005Z,44.20
2023-07-03T12:38:20.915Z,44.70
2023-07-03T12:40:51.226Z,44.80
2023-07-03T12:43:27.195Z,44.50
2023-07-03T12:45:55.760Z,43.50
2023-07-03T12:48:24.264Z,42.70
2023-07-03T12:50:58.911Z,42.80
2023-07-03T12:53:33.777Z,43.80
2023-07-03T12:56:07.332Z,43.10
2023-07-03T12:58:34.457Z,43.40
2023-07-03T13:01:07.764Z,43.10
2023-07-03T13:03:41.595Z,43.80
2023-07-03T13:06:30.503Z,43.90
2023-07-03T13:08:59.262Z,44.40
2023-07-03T13:11:39.845Z,44.40
2023-07-03T13:14:11.924Z,43.80
2023-07-03T13:16:40.448Z,42.80
2023-07-03T13:19:07.668Z,43.60
2023-07-03T13:21:38.245Z,43.30
2023-07-03T13:24:14.377Z,44.20
2023-07-03T13:26:42.932Z,43.50
2023-07-03T13:29:11.375Z,43.60
2023-07-03T13:31:50.836Z,43.80
2023-07-03T13:34:23.196Z,43.50
2023-07-03T13:37:05.789Z,43.40
2023-07-03T13:39:37.390Z,43.90
2023-07-03T13:42:10.033Z,44.50
2023-07-03T13:44:37.103Z,45.80
2023-07-03T13:47:04.449Z,45.20
2023-07-03T13:49:33.847Z,45.00
2023-07-03T13:55:08.055Z,45.30
2023-07-03T13:57:45.172Z,46.10
2023-07-03T14:00:13.107Z,44.60
2023-07-03T14:02:48.969Z,46.70
2023-07-03T14:05:21.332Z,47.40
2023-07-03T14:08:00.581Z,48.30
2023-07-03T14:10:27.762Z,45.90
2023-07-03T14:12:59.218Z,46.20
2023-07-03T14:15:29.574Z,46.20
2023-07-03T14:17:57.015Z,46.10
2023-07-03T14:20:27.704Z,46.60
2023-07-03T14:22:57.464Z,47.60
2023-07-03T14:25:31.196Z,48.40
2023-07-03T14:28:06.304Z,48.40
2023-07-03T14:30:47.320Z,49.40
2023-07-03T14:33:17.727Z,49.30
2023-07-03T14:35:49.878Z,49.80
2023-07-03T14:38:17.555Z,50.10
2023-07-03T14:40:48.192Z,50.40
2023-07-03T14:43:15.370Z,51.00
2023-07-03T14:45:42.571Z,51.60
2023-07-03T14:48:11.427Z,51.20
2023-07-03T14:50:40.310Z,51.80
2023-07-03T14:53:16.978Z,52.70
2023-07-03T14:55:44.106Z,52.80
2023-07-03T14:58:16.231Z,52.20
2023-07-03T15:00:43.414Z,53.40
2023-07-03T15:03:11.403Z,54.20
2023-07-03T15:05:38.813Z,53.70
2023-07-03T15:08:10.874Z,53.90
2023-07-03T15:10:38.834Z,54.60
2023-07-03T15:13:07.030Z,53.20
2023-07-03T15:15:38.594Z,54.20
2023-07-03T15:18:12.133Z,54.20
2023-07-03T15:20:41.544Z,53.80
2023-07-03T15:23:10.459Z,54.40
2023-07-03T15:25:37.798Z,55.50
2023-07-03T15:28:05.414Z,56.10
2023-07-03T15:30:32.434Z,56.40
2023-07-03T15:32:59.602Z,56.70
2023-07-03T15:35:26.917Z,56.30
2023-07-03T15:37:54.027Z,56.80
2023-07-03T15:40:21.194Z,56.60
2023-07-03T15:42:48.320Z,57.60
2023-07-03T15:45:15.756Z,58.10
2023-07-03T15:47:46.322Z,57.80
2023-07-03T15:50:14.796Z,57.80
2023-07-03T15:52:42.078Z,58.10
2023-07-03T15:55:09.645Z,58.40
2023-07-03T15:57:36.762Z,58.20
2023-07-03T16:00:04.345Z,57.80
2023-07-03T16:02:31.688Z,57.70
2023-07-03T16:04:58.972Z,58.10
2023-07-03T16:07:29.808Z,57.00
2023-07-03T16:11:08.884Z,58.10
2023-07-03T16:13:39.653Z,58.80
2023-07-03T16:16:19.753Z,59.50
2023-07-03T16:19:16.779Z,58.40
2023-07-03T16:21:44.103Z,58.40
2023-07-03T16:24:42.058Z,59.50
2023-07-03T16:27:09.845Z,59.20
2023-07-03T16:29:37.198Z,58.60
2023-07-03T16:32:04.822Z,58.20
2023-07-03T16:34:32.097Z,57.70
2023-07-03T16:36:59.198Z,57.40
2023-07-03T16:39:26.286Z,59.30
2023-07-03T16:41:53.437Z,60.30
2023-07-03T16:44:21.432Z,60.20
2023-07-03T16:46:52.971Z,59.70
2023-07-03T16:49:20.524Z,60.90
2023-07-03T16:51:47.696Z,62.30
2023-07-03T16:54:14.895Z,62.40
2023-07-03T16:56:42.103Z,62.00
2023-07-03T16:59:10.038Z,63.10
2023-07-03T17:01:40.696Z,64.00
2023-07-03T17:04:10.931Z,63.60
2023-07-03T17:06:38.204Z,65.60
2023-07-03T17:09:07.873Z,65.90
2023-07-03T17:11:39.752Z,67.50
2023-07-03T17:14:07.017Z,68.50
2023-07-03T17:16:36.471Z,70.00
2023-07-03T17:19:03.725Z,71.20
2023-07-03T17:21:31.453Z,72.90
2023-07-03T17:24:06.161Z,74.10
2023-07-03T17:26:34.315Z,74.70
2023-07-03T17:29:04.492Z,75.10
2023-07-03T17:31:32.146Z,76.60
2023-07-03T17:33:59.546Z,77.10
2023-07-03T17:36:26.865Z,79.40
2023-07-03T17:38:54.312Z,79.80
2023-07-03T17:41:23.254Z,83.30
2023-07-03T17:43:52.879Z,86.50
2023-07-03T17:46:22.080Z,89.50
2023-07-03T17:48:49.246Z,90.90
2023-07-03T17:51:17.015Z,91.70
2023-07-03T17:53:45.602Z,92.40
2023-07-03T17:56:12.720Z,94.70
2023-07-03T17:58:40.673Z,95.00
2023-07-03T18:01:08.065Z,95.90
2023-07-03T18:03:35.420Z,97.30
2023-07-03T18:06:02.975Z,97.70
2023-07-03T18:08:33.049Z,98.20
2023-07-03T18:11:00.315Z,99.50
2023-07-03T18:13:29.074Z,99.80
2023-07-03T18:15:57.266Z,99.90
2023-07-03T18:18:24.965Z,99.90
2023-07-03T18:20:52.028Z,99.90
2023-07-03T18:23:19.222Z,99.90
2023-07-03T18:25:49.589Z,99.90
2023-07-03T18:28:18.777Z,99.90
2023-07-03T18:30:46.404Z,99.90
2023-07-03T18:33:13.676Z,99.90
2023-07-03T18:35:40.943Z,99.90
2023-07-03T18:38:08.234Z,99.90
2023-07-03T18:40:35.525Z,99.90
2023-07-03T18:43:09.057Z,99.90
2023-07-03T18:45:36.801Z,99.90
2023-07-03T18:48:07.017Z,99.90
2023-07-03T18:50:34.343Z,99.90
2023-07-03T18:53:01.717Z,99.90
2023-07-03T18:55:29.126Z,99.90
2023-07-03T18:57:57.122Z,99.90
2023-07-03T19:00:24.505Z,99.90
2023-07-03T19:02:51.993Z,99.90
2023-07-03T19:05:19.166Z,99.90
2023-07-03T19:07:46.399Z,99.90
2023-07-03T19:10:18.669Z,99.90
2023-07-03T19:12:47.407Z,99.90
2023-07-03T19:15:14.890Z,99.90
2023-07-03T19:17:43.457Z,99.90
2023-07-03T19:20:12.258Z,99.90
2023-07-03T19:22:39.607Z,99.90
2023-07-03T19:25:10.260Z,99.90
2023-07-03T19:27:37.377Z,99.90
2023-07-03T19:30:06.574Z,99.90
2023-07-03T19:32:33.768Z,99.90
2023-07-03T19:35:00.985Z,99.90
2023-07-03T19:37:28.093Z,99.90
2023-07-03T19:39:55.458Z,99.90
2023-07-03T19:42:22.638Z,99.90
2023-07-03T19:44:52.054Z,99.90
2023-07-03T19:47:19.467Z,99.90
2023-07-03T19:49:46.563Z,99.90
2023-07-03T19:52:13.720Z,99.90
2023-07-03T19:54:40.878Z,99.90
2023-07-03T19:57:11.429Z,99.90
2023-07-03T19:59:42.163Z,99.90
2023-07-03T20:02:09.583Z,99.90
2023-07-03T20:04:37.406Z,99.90
2023-07-03T20:07:04.814Z,99.90
2023-07-03T20:09:32.713Z,99.90
2023-07-03T20:12:00.019Z,99.90
2023-07-03T20:14:27.247Z,99.90
2023-07-03T20:16:54.782Z,99.90
2023-07-03T20:19:21.989Z,99.90
2023-07-03T20:21:49.237Z,99.90
2023-07-03T20:24:19.121Z,99.90
2023-07-03T20:26:46.477Z,99.90
2023-07-03T20:29:13.746Z,99.90
2023-07-03T20:31:43.032Z,99.90
2023-07-03T20:34:12.578Z,99.90
2023-07-03T20:36:39.910Z,99.90
2023-07-03T20:39:07.294Z,99.90
2023-07-03T20:41:34.740Z,99.90
2023-07-03T20:44:08.019Z,99.90
2023-07-03T20:46:35.315Z,99.90
2023-07-03T20:49:02.742Z,99.90
2023-07-03T20:51:33.748Z,99.90
2023-07-03T20:54:04.331Z,99.90
2023-07-03T20:56:37.084Z,99.90
2023-07-03T20:59:04.287Z,99.90
2023-07-03T21:01:38.382Z,99.90
2023-07-03T21:04:07.962Z,99.90
2023-07-03T21:06:38.439Z,99.90
2023-07-03T21:09:07.129Z,99.90
2023-07-03T21:11:40.387Z,99.90
2023-07-03T21:14:08.174Z,99.90
2023-07-03T21:16:37.076Z,99.90
2023-07-03T21:19:07.194Z,99.90
2023-07-03T21:21:34.329Z,99.90
2023-07-03T21:24:05.739Z,99.90
2023-07-03T21:26:32.965Z,99.90
2023-07-03T21:29:00.766Z,99.90
2023-07-03T21:31:31.432Z,99.90
2023-07-03T21:33:59.409Z,99.90
2023-07-03T21:36:38.015Z,99.90
2023-07-03T21:39:07.249Z,99.90
2023-07-03T21:41:36.998Z,99.90
2023-07-03T21:44:16.675Z,99.90
2023-07-03T21:46:44.568Z,99.90
2023-07-03T21:49:14.529Z,99.90
2023-07-03T21:51:42.052Z,99.90
2023-07-03T21:54:09.170Z,99.90
2023-07-03T21:56:39.609Z,99.90
2023-07-03T21:59:10.179Z,99.90
2023-07-03T22:01:40.061Z,99.90
2023-07-03T22:04:11.523Z,99.90
2023-07-03T22:06:38.769Z,99.90
2023-07-03T22:09:08.582Z,99.90
2023-07-03T22:11:36.004Z,99.90
2023-07-03T22:14:05.482Z,99.90
2023-07-03T22:16:33.261Z,99.90
2023-07-03T22:19:00.726Z,99.90
2023-07-03T22:21:34.194Z,99.90
2023-07-03T22:24:01.739Z,99.90
2023-07-03T22:26:31.360Z,99.90
2023-07-03T22:29:04.313Z,99.90
2023-07-03T22:31:32.010Z,99.90
2023-07-03T22:34:05.840Z,99.90
2023-07-03T22:36:34.285Z,99.90
2023-07-03T22:39:01.488Z,99.90
2023-07-03T22:41:28.648Z,99.90
2023-07-03T22:43:55.799Z,99.90
2023-07-03T22:46:24.790Z,99.90
2023-07-03T22:48:54.582Z,99.90
2023-07-03T22:51:24.262Z,99.90
2023-07-03T22:53:51.560Z,99.90
2023-07-03T22:56:19.979Z,99.90
2023-07-03T22:58:47.221Z,99.90
2023-07-03T23:01:14.565Z,99.90
2023-07-03T23:03:44.198Z,99.90
2023-07-03T23:06:12.425Z,99.90
2023-07-03T23:08:39.660Z,99.90
2023-07-03T23:11:07.349Z,99.90
2023-07-03T23:13:35.437Z,99.90
2023-07-03T23:16:07.511Z,99.90
2023-07-03T23:18:39.889Z,99.90
2023-07-03T23:21:16.954Z,99.90
2023-07-03T23:23:45.452Z,99.90
2023-07-03T23:26:15.811Z,99.90
2023-07-03T23:28:45.756Z,99.90
2023-07-03T23:31:17.698Z,99.90
2023-07-03T23:33:51.504Z,99.90
2023-07-03T23:36:21.743Z,99.90
2023-07-03T23:38:55.019Z,99.90
2023-07-03T23:41:29.128Z,99.90
2023-07-03T23:43:57.627Z,99.90
2023-07-03T23:46:33.172Z,99.90
2023-07-03T23:49:00.997Z,99.90
2023-07-03T23:51:30.415Z,99.90
2023-07-03T23:53:58.568Z,99.90
2023-07-03T23:56:25.666Z,99.90
2023-07-03T23:58:52.898Z,99.90
